Time;durP1;ratioP1;P1;durP2;ratioP2;P2;SDS_P1;SDS_P2;PMS_P1;PMS_P2;Temp;Humidity;BMP_temperature;BMP_pressure;BME280_temperature;BME280_humidity;BME280_pressure;Samples;Min_cycle;Max_cycle;Signal;HPM_P1;HPM_P2
2023/10/10 00:01:27;;;;;;;13.32;5.13;;;18.30;83.10;;;;;;9168855;19;20094;-64
2023/10/10 00:04:36;;;;;;;12.82;5.85;;;18.30;83.10;;;;;;9170145;19;20402;-64
2023/10/10 00:07:43;;;;;;;15.15;5.00;;;18.30;83.20;;;;;;9170789;19;20007;-65
2023/10/10 00:10:50;;;;;;;8.93;4.88;;;18.30;83.20;;;;;;9169845;19;20047;-64
2023/10/10 00:14:05;;;;;;;14.77;5.20;;;18.30;83.30;;;;;;9171605;19;20018;-65
2023/10/10 00:17:11;;;;;;;14.23;5.40;;;18.40;83.40;;;;;;9169115;19;20011;-68
2023/10/10 00:20:25;;;;;;;13.80;5.20;;;18.30;83.40;;;;;;9163798;19;20014;-65
2023/10/10 00:23:34;;;;;;;11.30;5.47;;;18.20;83.40;;;;;;9165994;19;20431;-65
2023/10/10 00:26:42;;;;;;;16.42;4.88;;;18.40;83.40;;;;;;9166085;19;20592;-65
2023/10/10 00:29:48;;;;;;;17.88;5.75;;;18.20;83.40;;;;;;9166571;19;20015;-66
2023/10/10 00:32:57;;;;;;;16.25;5.32;;;18.20;83.40;;;;;;9162172;19;20022;-65
2023/10/10 00:36:05;;;;;;;13.70;5.10;;;18.20;83.40;;;;;;9167826;19;20018;-66
2023/10/10 00:39:22;;;;;;;8.65;4.00;;;18.20;83.50;;;;;;9166694;19;20473;-65
2023/10/10 00:42:37;;;;;;;10.38;4.55;;;18.20;83.40;;;;;;9169928;19;20011;-65
2023/10/10 00:45:52;;;;;;;11.88;4.93;;;18.20;83.50;;;;;;9168699;19;20802;-67
2023/10/10 00:49:06;;;;;;;20.35;5.18;;;18.20;83.50;;;;;;9167937;19;20013;-64
2023/10/10 00:52:17;;;;;;;18.15;5.40;;;18.20;83.60;;;;;;9168380;19;20018;-65
2023/10/10 00:55:25;;;;;;;13.13;5.30;;;18.20;83.60;;;;;;9164516;19;20023;-66
2023/10/10 00:58:36;;;;;;;16.17;5.63;;;18.20;83.60;;;;;;9166659;19;20774;-67
2023/10/10 01:01:43;;;;;;;18.13;5.50;;;18.20;83.60;;;;;;9166163;19;20459;-63
2023/10/10 01:04:55;;;;;;;10.35;5.03;;;18.20;83.60;;;;;;9167372;19;20019;-64
2023/10/10 01:08:03;;;;;;;11.00;5.60;;;18.20;83.70;;;;;;9166668;19;20022;-66
2023/10/10 01:11:11;;;;;;;9.40;4.93;;;18.20;83.70;;;;;;9166650;19;20023;-65
2023/10/10 01:14:18;;;;;;;14.32;5.63;;;18.20;83.90;;;;;;9167686;19;20033;-64
2023/10/10 01:17:33;;;;;;;18.05;5.85;;;18.20;83.70;;;;;;9168444;19;20015;-66
2023/10/10 01:20:45;;;;;;;15.60;5.63;;;18.20;83.70;;;;;;9164411;19;20476;-65
2023/10/10 01:23:53;;;;;;;15.07;5.90;;;18.20;83.70;;;;;;9166636;19;20368;-68
2023/10/10 01:27:05;;;;;;;14.70;5.03;;;18.20;83.70;;;;;;9169106;19;20010;-65
2023/10/10 01:30:18;;;;;;;22.58;5.82;;;18.20;83.70;;;;;;9164281;19;20021;-65
2023/10/10 01:33:35;;;;;;;13.35;4.95;;;18.20;83.70;;;;;;9164899;19;20487;-65
2023/10/10 01:36:50;;;;;;;14.55;6.13;;;18.10;83.70;;;;;;9162384;19;20022;-65
2023/10/10 01:40:13;;;;;;;14.20;5.53;;;18.10;83.80;;;;;;9165002;19;20018;-63
2023/10/10 01:43:20;;;;;;;10.93;5.75;;;18.10;83.80;;;;;;9166054;19;20106;-66
2023/10/10 01:46:30;;;;;;;14.10;6.10;;;18.10;83.80;;;;;;9166545;19;20352;-66
2023/10/10 01:49:37;;;;;;;18.50;5.63;;;18.10;83.90;;;;;;9163604;19;20018;-66
2023/10/10 01:52:46;;;;;;;11.65;5.18;;;18.10;83.80;;;;;;9165309;19;20010;-66
2023/10/10 01:55:54;;;;;;;10.57;5.50;;;18.00;83.80;;;;;;9165812;19;20026;-66
2023/10/10 01:59:03;;;;;;;12.52;6.18;;;18.00;83.90;;;;;;9164349;19;20028;-69
2023/10/10 02:02:13;;;;;;;15.43;5.78;;;18.00;83.80;;;;;;9165252;19;20018;-65
2023/10/10 02:05:32;;;;;;;11.63;6.15;;;18.00;83.80;;;;;;9165631;19;20354;-64
2023/10/10 02:08:44;;;;;;;14.45;5.93;;;18.00;83.80;;;;;;9166793;19;20022;-65
2023/10/10 02:11:53;;;;;;;16.92;6.60;;;18.00;83.80;;;;;;9165665;19;20022;-65
2023/10/10 02:15:01;;;;;;;13.32;6.53;;;18.00;83.80;;;;;;9167093;19;20026;-64
2023/10/10 02:18:12;;;;;;;15.40;6.55;;;18.00;83.80;;;;;;9166045;19;20750;-68
2023/10/10 02:21:31;;;;;;;15.05;6.55;;;18.00;83.80;;;;;;9162509;19;20825;-63
2023/10/10 02:24:41;;;;;;;12.05;6.90;;;17.90;83.80;;;;;;9165603;19;20294;-69
2023/10/10 02:27:56;;;;;;;14.75;7.88;;;17.90;83.80;;;;;;9167959;19;20015;-65
2023/10/10 02:31:04;;;;;;;13.57;8.07;;;17.90;83.80;;;;;;9163767;19;20090;-66
2023/10/10 02:34:12;;;;;;;19.92;9.43;;;17.90;83.80;;;;;;9164148;19;20030;-64
2023/10/10 02:37:41;;;;;;;17.25;8.35;;;17.90;83.80;;;;;;9163171;19;20082;-67
2023/10/10 02:40:52;;;;;;;15.75;8.82;;;17.90;83.90;;;;;;9164903;19;20018;-65
2023/10/10 02:44:04;;;;;;;14.50;8.55;;;17.80;83.80;;;;;;9173340;19;20026;-69
2023/10/10 02:47:13;;;;;;;16.50;9.27;;;17.80;83.80;;;;;;9175800;19;20014;-65
2023/10/10 02:50:39;;;;;;;20.30;8.75;;;17.80;83.80;;;;;;9172101;19;20555;-64
2023/10/10 02:53:47;;;;;;;21.10;9.57;;;17.80;83.90;;;;;;9172600;19;20022;-66
2023/10/10 02:56:58;;;;;;;15.98;9.88;;;17.80;83.90;;;;;;9172979;19;20023;-65
2023/10/10 03:00:27;;;;;;;18.17;9.40;;;17.70;83.80;;;;;;9171548;19;20011;-64
2023/10/10 03:03:39;;;;;;;18.63;9.02;;;17.70;83.80;;;;;;9171951;19;20034;-69
2023/10/10 03:06:47;;;;;;;20.58;10.77;;;17.70;83.90;;;;;;9172072;19;20022;-68
2023/10/10 03:13:32;;;;;;;18.83;10.80;;;17.60;83.80;;;;;;9172289;19;20764;-66
2023/10/10 03:16:59;;;;;;;17.95;10.02;;;17.50;83.80;;;;;;9171038;19;20370;-63
2023/10/10 03:20:24;;;;;;;19.92;10.40;;;17.50;83.80;;;;;;9171060;19;20018;-64
2023/10/10 03:23:41;;;;;;;21.65;9.85;;;17.50;83.90;;;;;;9173338;19;20093;-64
2023/10/10 03:27:00;;;;;;;19.65;10.38;;;17.40;83.90;;;;;;9171507;19;20015;-63
2023/10/10 03:30:24;;;;;;;17.80;10.52;;;17.40;83.90;;;;;;9171551;19;20358;-64
2023/10/10 03:33:35;;;;;;;14.57;9.13;;;17.40;83.90;;;;;;9168824;19;20029;-64
2023/10/10 03:36:44;;;;;;;15.90;9.77;;;17.40;83.90;;;;;;9167346;19;20014;-64
2023/10/10 03:39:53;;;;;;;17.65;10.43;;;17.30;83.90;;;;;;9169987;19;20480;-66
2023/10/10 05:26:19;;;;;;;31.27;14.65;;;16.90;84.60;;;;;;9167107;19;20011;-68
2023/10/10 05:29:25;;;;;;;28.80;14.55;;;16.90;84.70;;;;;;9167586;19;20019;-63
2023/10/10 05:32:33;;;;;;;27.65;14.73;;;16.90;84.60;;;;;;9163438;19;20094;-67
2023/10/10 05:35:40;;;;;;;33.05;16.30;;;16.80;84.60;;;;;;9165901;19;20464;-64
2023/10/10 05:38:50;;;;;;;30.58;15.57;;;16.80;84.70;;;;;;9164086;19;20018;-63
2023/10/10 05:41:59;;;;;;;26.20;14.95;;;16.80;84.70;;;;;;9164118;19;20791;-67
2023/10/10 05:45:08;;;;;;;27.55;15.60;;;16.80;84.90;;;;;;9166004;19;20590;-64
2023/10/10 05:48:14;;;;;;;27.90;16.40;;;16.80;84.80;;;;;;9167519;19;20026;-68
2023/10/10 05:51:23;;;;;;;28.98;16.33;;;16.80;84.90;;;;;;9167844;19;20019;-63
2023/10/10 05:54:28;;;;;;;29.63;18.00;;;16.90;85.00;;;;;;9166847;19;20018;-64
2023/10/10 05:57:38;;;;;;;39.00;17.85;;;16.90;85.10;;;;;;9163830;19;20009;-66
2023/10/10 06:00:45;;;;;;;33.45;19.55;;;16.90;85.00;;;;;;9166292;19;20379;-63
2023/10/10 06:03:52;;;;;;;39.15;19.23;;;16.90;85.00;;;;;;9164202;19;20449;-67
2023/10/10 06:06:59;;;;;;;35.70;19.77;;;16.90;85.10;;;;;;9164431;19;20010;-63
2023/10/10 06:10:14;;;;;;;32.65;18.00;;;16.90;85.20;;;;;;9164187;19;20022;-66
2023/10/10 06:13:23;;;;;;;39.55;18.98;;;16.90;85.20;;;;;;9166920;19;20074;-67
2023/10/10 06:16:31;;;;;;;45.75;20.38;;;16.90;86.00;;;;;;9165162;19;20406;-66
2023/10/10 06:19:36;;;;;;;39.35;21.08;;;17.90;85.80;;;;;;9174373;19;20021;-68
2023/10/10 06:22:47;;;;;;;35.10;19.65;;;16.90;85.30;;;;;;9172604;19;20492;-69
2023/10/10 06:26:00;;;;;;;39.35;19.98;;;16.90;85.20;;;;;;9168168;19;20023;-66
2023/10/10 06:29:12;;;;;;;37.88;20.33;;;16.90;85.20;;;;;;9167183;19;20455;-66
2023/10/10 06:32:18;;;;;;;34.75;20.23;;;16.90;85.20;;;;;;9163810;19;20504;-68
2023/10/10 06:35:29;;;;;;;43.72;22.20;;;16.90;85.30;;;;;;9167436;19;20456;-64
2023/10/10 06:38:34;;;;;;;42.13;22.33;;;16.90;85.20;;;;;;9163546;19;20021;-66
2023/10/10 06:41:43;;;;;;;36.67;20.25;;;16.90;85.30;;;;;;9165573;19;20354;-64
2023/10/10 06:44:51;;;;;;;46.33;22.60;;;16.90;85.20;;;;;;9170794;19;20015;-65
2023/10/10 06:48:01;;;;;;;42.97;22.85;;;16.90;85.30;;;;;;9170945;19;20113;-66
2023/10/10 06:51:09;;;;;;;47.55;23.65;;;16.90;85.30;;;;;;9172858;19;20027;-66
2023/10/10 06:54:27;;;;;;;42.70;21.40;;;16.90;85.30;;;;;;9174964;19;20022;-65
2023/10/10 06:57:39;;;;;;;43.38;22.65;;;16.90;85.40;;;;;;9174173;19;20041;-65
2023/10/10 07:01:04;;;;;;;45.78;23.40;;;16.90;85.40;;;;;;9175599;19;20022;-64
2023/10/10 07:04:11;;;;;;;39.35;21.48;;;16.90;85.50;;;;;;9174075;19;20044;-66
2023/10/10 07:07:20;;;;;;;42.88;21.73;;;16.90;85.40;;;;;;9171337;19;20377;-65
2023/10/10 07:10:33;;;;;;;46.08;21.85;;;16.90;85.50;;;;;;9174317;19;20034;-64
2023/10/10 07:13:44;;;;;;;58.58;23.00;;;16.90;85.60;;;;;;9173000;19;20499;-64
2023/10/10 07:16:54;;;;;;;47.17;22.33;;;16.90;85.60;;;;;;9171559;19;20082;-65
2023/10/10 07:23:36;;;;;;;51.00;22.40;;;16.90;86.20;;;;;;9167775;19;20048;-66
2023/10/10 07:26:58;;;;;;;44.35;22.60;;;16.90;85.60;;;;;;9167843;19;20018;-66
2023/10/10 07:30:16;;;;;;;43.80;22.90;;;16.90;85.70;;;;;;9169219;19;20014;-65
2023/10/10 07:33:40;;;;;;;52.25;23.35;;;17.00;85.80;;;;;;9169437;19;20026;-65
2023/10/10 07:36:50;;;;;;;48.85;24.67;;;17.00;85.90;;;;;;9167150;19;20015;-64
2023/10/10 07:40:20;;;;;;;51.00;25.70;;;17.00;85.90;;;;;;9168695;19;20651;-69
2023/10/10 07:43:27;;;;;;;51.35;26.10;;;17.00;85.90;;;;;;9165733;19;20026;-66
2023/10/10 07:46:35;;;;;;;57.40;26.98;;;17.00;85.80;;;;;;9170055;19;20334;-64
2023/10/10 07:49:50;;;;;;;53.58;26.02;;;17.00;85.90;;;;;;9170434;19;20494;-65
2023/10/10 07:52:57;;;;;;;54.75;25.63;;;17.10;86.00;;;;;;9169792;19;20022;-70
2023/10/10 07:56:03;;;;;;;55.10;27.80;;;17.10;86.00;;;;;;9170826;19;20018;-66
2023/10/10 07:59:11;;;;;;;56.67;27.48;;;17.10;86.00;;;;;;9167658;19;20014;-69
2023/10/10 08:02:24;;;;;;;67.40;28.88;;;17.10;86.00;;;;;;9166536;19;20496;-70
2023/10/10 08:05:35;;;;;;;63.35;30.73;;;17.10;86.10;;;;;;9168761;19;20415;-67
2023/10/10 08:08:42;;;;;;;61.95;31.75;;;17.20;86.20;;;;;;9168374;19;20468;-67
2023/10/10 08:11:54;;;;;;;59.00;30.30;;;17.20;86.10;;;;;;9167228;19;20015;-67
2023/10/10 08:15:19;;;;;;;65.72;30.67;;;17.30;86.10;;;;;;9168500;19;20350;-65
2023/10/10 08:21:51;;;;;;;63.45;33.28;;;17.30;86.00;;;;;;9169521;19;20467;-65
2023/10/10 08:24:59;;;;;;;72.97;32.67;;;17.30;86.00;;;;;;9167636;19;20026;-65
2023/10/10 08:28:05;;;;;;;64.57;32.25;;;17.30;85.90;;;;;;9169217;19;20019;-65
2023/10/10 08:31:13;;;;;;;62.30;34.88;;;17.30;85.90;;;;;;9169919;19;20018;-63
2023/10/10 08:34:19;;;;;;;73.82;36.70;;;17.40;86.00;;;;;;9172080;19;20356;-68
2023/10/10 08:37:30;;;;;;;70.30;34.88;;;17.40;86.00;;;;;;9161887;19;20014;-64
2023/10/10 08:40:43;;;;;;;68.28;35.80;;;17.50;86.10;;;;;;9167495;19;20025;-64
2023/10/10 08:44:01;;;;;;;73.45;35.42;;;17.40;85.90;;;;;;9167630;19;20112;-64
2023/10/10 08:47:15;;;;;;;72.70;38.90;;;17.60;86.10;;;;;;9167039;19;20524;-66
2023/10/10 08:50:24;;;;;;;79.85;37.35;;;17.70;86.30;;;;;;9167799;19;20014;-63
2023/10/10 08:53:36;;;;;;;78.22;36.70;;;17.70;86.70;;;;;;9166491;19;20011;-65
2023/10/10 08:56:59;;;;;;;88.28;38.17;;;17.80;86.10;;;;;;9164260;19;20010;-65
2023/10/10 09:00:11;;;;;;;87.53;39.50;;;17.90;86.10;;;;;;9167495;19;20220;-65
2023/10/10 09:03:19;;;;;;;88.53;39.22;;;18.00;86.10;;;;;;9162801;19;20010;-65
2023/10/10 09:06:25;;;;;;;76.05;39.60;;;18.10;86.20;;;;;;9167544;19;20018;-64
2023/10/10 09:09:37;;;;;;;86.97;37.70;;;18.10;86.10;;;;;;9165376;19;20014;-66
2023/10/10 09:12:55;;;;;;;78.60;37.47;;;18.30;86.10;;;;;;9166886;19;20030;-62
2023/10/10 09:16:07;;;;;;;72.43;35.40;;;18.40;86.10;;;;;;9164559;19;20011;-66
2023/10/10 09:19:14;;;;;;;76.32;35.72;;;18.40;86.00;;;;;;9161057;19;20027;-67
2023/10/10 09:22:34;;;;;;;72.72;34.30;;;18.50;86.00;;;;;;9165444;19;20025;-67
2023/10/10 09:25:48;;;;;;;72.95;33.05;;;18.60;85.90;;;;;;9167741;19;20045;-69
2023/10/10 09:28:58;;;;;;;69.07;31.52;;;18.80;85.80;;;;;;9163694;19;20018;-65
2023/10/10 09:32:05;;;;;;;69.20;33.17;;;18.90;85.70;;;;;;9163408;19;20019;-67
2023/10/10 09:35:13;;;;;;;60.42;30.77;;;19.00;85.60;;;;;;9164434;19;20494;-66
2023/10/10 09:38:21;;;;;;;62.55;29.17;;;19.10;85.50;;;;;;9162427;19;20532;-67
2023/10/10 09:41:37;;;;;;;52.85;27.60;;;19.20;85.40;;;;;;9165759;19;20725;-65
2023/10/10 09:48:28;;;;;;;53.38;25.45;;;19.40;85.10;;;;;;9162379;19;20019;-66
2023/10/10 09:54:56;;;;;;;49.70;23.27;;;19.70;84.80;;;;;;9163917;19;20022;-67
2023/10/10 09:58:17;;;;;;;45.95;21.65;;;19.80;84.60;;;;;;9164902;19;20031;-65
2023/10/10 10:01:25;;;;;;;46.00;23.17;;;19.90;84.40;;;;;;9163560;19;20015;-66
2023/10/10 10:04:38;;;;;;;40.40;20.70;;;20.00;84.30;;;;;;9162325;19;20022;-65
2023/10/10 10:08:06;;;;;;;37.67;20.63;;;20.10;84.00;;;;;;9164255;19;20014;-65
2023/10/10 10:11:16;;;;;;;35.58;18.58;;;20.20;83.70;;;;;;9166168;19;20035;-70
2023/10/10 10:14:35;;;;;;;33.67;18.75;;;20.40;88.10;;;;;;9162466;19;20021;-68
2023/10/10 10:17:53;;;;;;;33.55;18.08;;;20.40;83.40;;;;;;9162784;19;20476;-70
2023/10/10 10:21:18;;;;;;;35.65;16.27;;;20.50;83.20;;;;;;9160187;19;20346;-72
2023/10/10 10:24:33;;;;;;;32.28;16.48;;;20.60;83.10;;;;;;9158982;19;20025;-69
2023/10/10 10:27:43;;;;;;;29.05;14.75;;;20.70;82.90;;;;;;9160591;19;20773;-69
2023/10/10 10:30:53;;;;;;;30.75;15.43;;;20.80;82.80;;;;;;9162016;19;20014;-71
2023/10/10 10:34:15;;;;;;;33.28;15.80;;;20.90;82.50;;;;;;9161109;19;20028;-72
2023/10/10 10:37:23;;;;;;;29.63;14.13;;;20.90;82.30;;;;;;9157560;19;20487;-72
2023/10/10 10:40:46;;;;;;;27.05;13.48;;;21.00;82.20;;;;;;9162821;19;20017;-73
2023/10/10 10:43:49;;;;;;;23.38;12.23;;;21.20;82.10;;;;;;9158816;19;21490;-71
2023/10/10 10:47:00;;;;;;;27.42;12.55;;;21.20;81.80;;;;;;9160708;19;20010;-70
2023/10/10 10:50:17;;;;;;;19.95;11.02;;;21.40;81.50;;;;;;9160088;19;20378;-71
2023/10/10 10:53:35;;;;;;;28.02;12.75;;;21.40;81.30;;;;;;9159095;19;20019;-67
2023/10/10 10:56:44;;;;;;;24.95;12.13;;;21.50;81.20;;;;;;9160506;19;20014;-67
2023/10/10 10:59:55;;;;;;;21.73;11.05;;;21.60;80.90;;;;;;9161570;19;20011;-69
2023/10/10 11:03:09;;;;;;;22.75;11.05;;;21.80;80.80;;;;;;9169017;19;20015;-68
2023/10/10 11:06:20;;;;;;;20.23;10.38;;;21.80;80.40;;;;;;9170837;19;20018;-67
2023/10/10 11:09:32;;;;;;;24.80;10.48;;;22.00;80.30;;;;;;9173378;19;20422;-71
2023/10/10 11:12:40;;;;;;;22.73;10.73;;;22.10;80.00;;;;;;9164467;19;20026;-69
2023/10/10 11:15:46;;;;;;;22.92;10.60;;;22.20;79.60;;;;;;9169037;19;20014;-69
2023/10/10 11:19:11;;;;;;;28.17;11.23;;;22.20;79.30;;;;;;9173647;19;20607;-66
2023/10/10 11:22:38;;;;;;;33.47;10.65;;;22.30;78.90;;;;;;9173422;19;20035;-68
2023/10/10 11:25:58;;;;;;;17.88;9.20;;;22.40;79.00;;;;;;9167694;19;20018;-63
2023/10/10 11:29:21;;;;;;;15.25;8.70;;;22.50;78.80;;;;;;9171576;19;20018;-63
2023/10/10 11:32:29;;;;;;;18.80;9.05;;;22.60;78.50;;;;;;9165578;19;20050;-66
2023/10/10 11:35:37;;;;;;;17.95;9.30;;;22.70;78.40;;;;;;9168417;19;20026;-65
2023/10/10 11:38:55;;;;;;;22.13;8.68;;;22.90;78.00;;;;;;9166965;19;20021;-70
2023/10/10 11:42:03;;;;;;;23.45;8.68;;;23.00;77.80;;;;;;9171759;19;20018;-68
2023/10/10 11:45:17;;;;;;;18.00;8.65;;;23.10;77.50;;;;;;9171281;19;20014;-66
2023/10/10 11:48:26;;;;;;;17.20;8.55;;;23.20;77.20;;;;;;9169668;19;20015;-70
2023/10/10 11:51:40;;;;;;;25.50;8.85;;;23.20;77.00;;;;;;9171942;19;20475;-71
2023/10/10 11:54:46;;;;;;;19.80;9.38;;;23.30;76.40;;;;;;9171244;19;20014;-65
2023/10/10 11:57:57;;;;;;;17.75;8.75;;;23.30;76.30;;;;;;9169904;19;20013;-65
2023/10/10 12:01:04;;;;;;;15.23;8.80;;;23.40;76.10;;;;;;9169276;19;20074;-65
2023/10/10 12:04:30;;;;;;;18.45;8.60;;;23.40;76.00;;;;;;9168204;19;20597;-71
2023/10/10 12:07:40;;;;;;;16.30;8.60;;;23.50;75.80;;;;;;9167576;19;20018;-67
2023/10/10 12:10:52;;;;;;;20.25;10.00;;;23.60;75.50;;;;;;9171038;19;20022;-69
2023/10/10 12:13:57;;;;;;;22.45;9.00;;;23.70;75.50;;;;;;9166489;19;20021;-67
2023/10/10 12:17:07;;;;;;;18.95;8.95;;;23.70;75.30;;;;;;9168849;19;20018;-66
2023/10/10 12:20:15;;;;;;;20.38;9.27;;;23.80;75.00;;;;;;9168645;19;20011;-70
2023/10/10 12:23:26;;;;;;;18.50;8.20;;;23.80;74.70;;;;;;9171078;19;20366;-72
2023/10/10 12:26:36;;;;;;;17.02;8.35;;;23.90;74.60;;;;;;9167205;19;20018;-65
2023/10/10 12:29:47;;;;;;;20.58;8.25;;;23.90;74.40;;;;;;9166978;19;20022;-69
2023/10/10 12:32:53;;;;;;;21.15;8.15;;;24.00;74.20;;;;;;9167164;19;20015;-67
2023/10/10 12:36:07;;;;;;;15.77;8.18;;;24.00;74.10;;;;;;9167103;19;20509;-68
2023/10/10 12:39:19;;;;;;;28.50;7.88;;;24.00;73.90;;;;;;9166949;19;20090;-65
2023/10/10 12:42:27;;;;;;;17.50;8.20;;;24.00;73.60;;;;;;9168817;19;20129;-66
2023/10/10 12:45:33;;;;;;;20.10;7.78;;;24.00;73.70;;;;;;9169028;19;20026;-66
2023/10/10 12:48:42;;;;;;;16.27;8.43;;;24.00;73.50;;;;;;9167782;19;20014;-64
2023/10/10 12:51:48;;;;;;;15.18;7.88;;;24.00;73.40;;;;;;9168614;19;20022;-69
2023/10/10 12:54:59;;;;;;;17.15;8.30;;;24.00;73.30;;;;;;9171387;19;20431;-67
2023/10/10 12:58:14;;;;;;;21.77;9.45;;;24.00;73.20;;;;;;9170387;19;20473;-70
2023/10/10 13:01:23;;;;;;;21.73;8.43;;;23.90;73.00;;;;;;9170798;19;20028;-66
2023/10/10 13:04:31;;;;;;;21.63;8.07;;;23.90;72.90;;;;;;9169063;19;20010;-70
2023/10/10 13:07:41;;;;;;;22.02;9.98;;;23.80;72.90;;;;;;9171448;19;20006;-66
2023/10/10 13:10:54;;;;;;;21.27;8.82;;;23.80;72.80;;;;;;9170256;19;20025;-66
2023/10/10 13:14:09;;;;;;;17.73;8.77;;;23.80;72.70;;;;;;9168484;19;20017;-65
2023/10/10 13:20:34;;;;;;;20.23;8.73;;;23.70;72.80;;;;;;9166475;19;20026;-68
2023/10/10 13:23:43;;;;;;;23.42;8.98;;;23.60;72.70;;;;;;9167497;19;20068;-66
2023/10/10 13:26:54;;;;;;;18.13;8.45;;;23.60;72.80;;;;;;9158454;19;20476;-66
2023/10/10 13:29:59;;;;;;;25.23;9.48;;;23.60;72.70;;;;;;9166185;19;20006;-69
2023/10/10 13:33:08;;;;;;;21.70;8.90;;;23.50;72.70;;;;;;9161563;19;20507;-66
2023/10/10 13:36:16;;;;;;;22.40;9.45;;;23.50;72.60;;;;;;9160953;19;20015;-69
2023/10/10 13:39:33;;;;;;;17.77;8.32;;;23.40;72.50;;;;;;9163275;19;20371;-68
2023/10/10 13:42:42;;;;;;;18.08;8.90;;;23.40;72.60;;;;;;9163460;19;20021;-66
2023/10/10 13:45:51;;;;;;;20.75;9.82;;;23.40;72.60;;;;;;9163591;19;20007;-67
2023/10/10 13:48:56;;;;;;;17.67;8.40;;;23.40;72.70;;;;;;9162246;19;20056;-66
2023/10/10 13:52:05;;;;;;;17.50;8.52;;;23.50;72.80;;;;;;9162820;19;20752;-69
2023/10/10 13:55:11;;;;;;;18.63;8.95;;;23.50;73.30;;;;;;9162630;19;20105;-68
2023/10/10 13:58:21;;;;;;;19.98;8.70;;;23.50;72.60;;;;;;9164703;19;20380;-68
2023/10/10 14:01:29;;;;;;;17.15;8.10;;;23.40;72.50;;;;;;9161407;19;20358;-69
2023/10/10 14:04:46;;;;;;;14.93;8.35;;;23.40;72.50;;;;;;9162938;19;20014;-73
2023/10/10 14:07:54;;;;;;;17.75;8.18;;;23.40;72.50;;;;;;9160783;19;20544;-69
2023/10/10 14:11:02;;;;;;;26.42;9.52;;;23.40;72.40;;;;;;9164232;19;20010;-69
2023/10/10 14:14:10;;;;;;;23.13;8.82;;;23.40;72.30;;;;;;9165278;19;20064;-68
2023/10/10 14:17:18;;;;;;;18.63;8.35;;;23.40;72.20;;;;;;9164357;19;20011;-69
2023/10/10 14:20:24;;;;;;;22.40;8.98;;;23.40;72.40;;;;;;9164261;19;20024;-66
2023/10/10 14:23:35;;;;;;;28.98;10.40;;;23.30;72.30;;;;;;9166825;19;20014;-66
2023/10/10 14:26:43;;;;;;;23.70;8.82;;;23.30;72.30;;;;;;9166186;19;20408;-67
2023/10/10 14:29:53;;;;;;;24.02;9.13;;;23.30;72.40;;;;;;9166474;19;20022;-67
2023/10/10 14:33:03;;;;;;;19.35;8.05;;;23.30;72.30;;;;;;9164559;19;20052;-67
2023/10/10 14:36:16;;;;;;;20.88;8.88;;;23.20;72.40;;;;;;9161393;19;20530;-66
2023/10/10 14:39:31;;;;;;;15.75;8.20;;;23.20;72.30;;;;;;9174994;19;20093;-67
2023/10/10 14:42:40;;;;;;;19.38;8.70;;;23.20;72.40;;;;;;9175450;19;20066;-68
2023/10/10 14:45:53;;;;;;;18.85;7.75;;;23.20;72.40;;;;;;9175316;19;20029;-69
2023/10/10 14:49:05;;;;;;;17.75;8.43;;;23.20;72.30;;;;;;9174602;19;20025;-68
2023/10/10 14:52:11;;;;;;;16.20;8.55;;;23.20;72.50;;;;;;9174494;19;20015;-68
2023/10/10 14:55:27;;;;;;;20.83;8.65;;;23.20;72.50;;;;;;9173428;19;20014;-67
2023/10/10 14:58:33;;;;;;;21.67;7.97;;;23.10;72.50;;;;;;9177832;19;20051;-66
2023/10/10 15:01:47;;;;;;;18.67;8.60;;;23.10;72.50;;;;;;9172819;19;20060;-66
2023/10/10 15:04:55;;;;;;;20.30;8.70;;;23.10;72.20;;;;;;9173151;19;20480;-68
2023/10/10 15:08:04;;;;;;;16.05;7.75;;;23.10;72.30;;;;;;9168586;19;20796;-69
2023/10/10 15:11:11;;;;;;;21.75;8.20;;;23.00;72.30;;;;;;9171587;19;20035;-65
2023/10/10 15:14:19;;;;;;;21.60;8.90;;;23.00;72.30;;;;;;9168461;19;20022;-68
2023/10/10 15:17:27;;;;;;;18.75;8.52;;;22.90;72.30;;;;;;9170789;19;20011;-64
2023/10/10 15:20:35;;;;;;;19.98;8.25;;;22.90;72.20;;;;;;9168773;19;20018;-64
2023/10/10 15:23:42;;;;;;;20.08;8.43;;;22.80;72.30;;;;;;9170230;19;20081;-64
2023/10/10 15:26:51;;;;;;;18.42;8.55;;;22.80;72.40;;;;;;9164618;19;20018;-64
2023/10/10 15:29:58;;;;;;;14.98;8.50;;;22.70;73.00;;;;;;9166117;19;20019;-64
2023/10/10 15:33:10;;;;;;;15.25;8.18;;;22.80;72.50;;;;;;9166847;19;20010;-64
2023/10/10 15:36:18;;;;;;;27.45;8.13;;;22.70;72.30;;;;;;9166358;19;20507;-63
2023/10/10 15:39:25;;;;;;;17.15;7.63;;;22.60;72.30;;;;;;9172773;19;20018;-64
2023/10/10 15:42:32;;;;;;;21.30;8.95;;;22.60;72.40;;;;;;9172425;19;20014;-66
2023/10/10 15:45:44;;;;;;;16.50;7.25;;;22.50;72.30;;;;;;9172258;19;20034;-66
2023/10/10 15:48:52;;;;;;;22.05;7.68;;;22.50;72.40;;;;;;9167669;19;20014;-63
2023/10/10 15:52:03;;;;;;;17.65;7.72;;;22.50;72.70;;;;;;9168292;19;20026;-63
2023/10/10 15:55:11;;;;;;;19.02;8.63;;;22.40;72.30;;;;;;9168558;19;20018;-65
2023/10/10 15:58:18;;;;;;;22.60;8.05;;;22.30;72.30;;;;;;9162534;19;20014;-66
2023/10/10 16:01:27;;;;;;;17.25;7.60;;;22.30;72.60;;;;;;9165093;19;20018;-67
2023/10/10 16:04:42;;;;;;;18.45;7.55;;;22.20;72.30;;;;;;9169031;19;20017;-67
2023/10/10 16:07:48;;;;;;;16.35;7.93;;;22.20;72.40;;;;;;9168092;19;20022;-66
2023/10/10 16:11:13;;;;;;;19.65;7.97;;;22.10;72.40;;;;;;9173346;19;20013;-71
2023/10/10 16:14:18;;;;;;;18.92;7.43;;;22.00;72.50;;;;;;9171378;19;20507;-68
2023/10/10 16:17:28;;;;;;;20.85;8.18;;;22.20;72.70;;;;;;9167292;19;20010;-71
2023/10/10 16:20:37;;;;;;;15.90;7.55;;;22.00;72.50;;;;;;9165398;19;20466;-69
2023/10/10 16:23:46;;;;;;;17.70;7.57;;;21.90;72.40;;;;;;9165649;19;20490;-67
2023/10/10 16:26:58;;;;;;;22.30;9.45;;;21.80;72.50;;;;;;9163219;19;20041;-66
2023/10/10 16:30:11;;;;;;;16.85;7.80;;;21.80;72.50;;;;;;9164446;19;20010;-69
2023/10/10 16:33:20;;;;;;;17.17;7.85;;;21.70;72.60;;;;;;9164099;19;20030;-68
2023/10/10 16:36:31;;;;;;;20.95;8.32;;;21.60;72.60;;;;;;9161403;19;20011;-69
2023/10/10 16:39:38;;;;;;;17.27;7.93;;;21.60;72.70;;;;;;9162542;19;20033;-66
2023/10/10 16:42:46;;;;;;;29.98;9.75;;;21.50;72.80;;;;;;9161919;19;20010;-70
2023/10/10 16:45:51;;;;;;;24.17;8.93;;;21.50;72.70;;;;;;9164938;19;20042;-68
2023/10/10 16:48:59;;;;;;;22.63;8.77;;;21.40;72.80;;;;;;9161833;19;20021;-70
2023/10/10 16:52:08;;;;;;;17.95;7.85;;;21.40;72.80;;;;;;9164250;19;20021;-69
2023/10/10 16:55:15;;;;;;;16.35;7.35;;;21.30;72.80;;;;;;9163629;19;21182;-67
2023/10/10 16:58:21;;;;;;;15.93;7.47;;;21.30;72.90;;;;;;9160966;19;20015;-64
2023/10/10 17:01:29;;;;;;;17.35;7.53;;;21.20;72.90;;;;;;9165636;19;20451;-67
2023/10/10 17:04:35;;;;;;;15.38;7.10;;;21.10;72.90;;;;;;9164949;19;20731;-68
2023/10/10 17:07:47;;;;;;;16.20;8.00;;;21.10;73.00;;;;;;9163589;19;20021;-64
2023/10/10 17:10:52;;;;;;;17.63;7.47;;;21.00;73.00;;;;;;9165429;19;20037;-67
2023/10/10 17:14:03;;;;;;;20.88;8.38;;;21.00;73.00;;;;;;9164411;19;20014;-65
2023/10/10 17:17:08;;;;;;;20.83;7.95;;;20.90;73.00;;;;;;9168744;19;20019;-67
2023/10/10 17:20:18;;;;;;;17.60;7.68;;;20.80;73.00;;;;;;9164995;19;20021;-65
2023/10/10 17:23:26;;;;;;;15.77;6.95;;;20.80;73.10;;;;;;9167229;19;20022;-65
2023/10/10 17:26:34;;;;;;;16.52;7.10;;;20.70;73.10;;;;;;9166814;19;20018;-66
2023/10/10 17:29:39;;;;;;;15.35;7.43;;;20.60;73.30;;;;;;9165201;19;20015;-66
2023/10/10 17:32:49;;;;;;;13.73;7.30;;;20.60;73.60;;;;;;9165489;19;20010;-66
2023/10/10 17:35:54;;;;;;;14.50;7.15;;;20.50;73.30;;;;;;9168314;19;20025;-69
2023/10/10 17:39:08;;;;;;;14.63;6.78;;;20.50;73.40;;;;;;9163744;19;20014;-65
2023/10/10 17:42:14;;;;;;;18.80;7.70;;;20.40;73.40;;;;;;9167390;19;20010;-64
2023/10/10 17:45:24;;;;;;;17.38;7.28;;;20.40;73.50;;;;;;9165743;19;20011;-69
2023/10/10 17:48:31;;;;;;;16.80;7.63;;;20.30;73.70;;;;;;9165260;19;20022;-65
2023/10/10 17:51:39;;;;;;;13.93;7.03;;;20.30;73.60;;;;;;9168505;19;20023;-65
2023/10/10 17:54:48;;;;;;;16.50;7.85;;;20.20;73.60;;;;;;9166038;19;20086;-70
2023/10/10 17:57:56;;;;;;;16.02;7.30;;;20.20;73.60;;;;;;9166932;19;20021;-65
2023/10/10 18:01:01;;;;;;;22.50;8.02;;;20.10;74.30;;;;;;9163973;19;20109;-69
2023/10/10 18:04:10;;;;;;;19.58;8.45;;;20.10;73.70;;;;;;9165391;19;20337;-65
2023/10/10 18:07:18;;;;;;;21.70;9.15;;;20.00;73.70;;;;;;9167345;19;20026;-67
2023/10/10 18:10:28;;;;;;;16.85;8.25;;;19.90;73.70;;;;;;9165688;19;20015;-68
2023/10/10 18:13:34;;;;;;;16.45;7.93;;;19.90;73.80;;;;;;9171574;19;20014;-66
2023/10/10 18:16:41;;;;;;;19.13;7.25;;;19.80;73.80;;;;;;9175739;19;20019;-68
2023/10/10 18:19:49;;;;;;;29.00;8.38;;;19.80;73.80;;;;;;9175171;19;20018;-65